Time;durP1;ratioP1;P1;durP2;ratioP2;P2;SDS_P1;SDS_P2;PMS_P1;PMS_P2;Temp;Humidity;BMP_temperature;BMP_pressure;BME280_temperature;BME280_humidity;BME280_pressure;Samples;Min_cycle;Max_cycle;Signal;HPM_P1;HPM_P2
2022/07/11 00:01:00;;;;;;;;;2.00;1.00;;;;;;;;5095218;27;45377;-61
2022/07/11 00:03:25;;;;;;;;;3.75;3.75;;;;;;;;5095316;27;45367;-61
2022/07/11 00:05:50;;;;;;;;;4.00;4.00;;;;;;;;5095068;27;45455;-62
2022/07/11 00:08:15;;;;;;;;;3.00;3.00;;;;;;;;5076635;27;47818;-61
2022/07/11 00:10:41;;;;;;;;;3.75;2.75;;;;;;;;5076479;27;45360;-62
2022/07/11 00:13:06;;;;;;;;;3.00;3.00;;;;;;;;5095012;27;45494;-62
2022/07/11 00:15:31;;;;;;;;;4.75;2.75;;;;;;;;5094967;27;45347;-62
2022/07/11 00:17:57;;;;;;;;;3.00;3.00;;;;;;;;5094839;27;45618;-61
2022/07/11 00:20:22;;;;;;;;;5.00;5.00;;;;;;;;5094063;27;45353;-62
2022/07/11 00:22:47;;;;;;;;;3.00;3.00;;;;;;;;5094735;27;45368;-62
2022/07/11 00:25:12;;;;;;;;;5.00;5.00;;;;;;;;5095018;27;45369;-61
2022/07/11 00:27:38;;;;;;;;;5.00;4.00;;;;;;;;5076126;27;47272;-63
2022/07/11 00:30:03;;;;;;;;;2.75;2.75;;;;;;;;5094096;27;45408;-62
2022/07/11 00:32:28;;;;;;;;;3.25;3.25;;;;;;;;5094604;27;45376;-61
2022/07/11 00:34:53;;;;;;;;;2.00;2.00;;;;;;;;5093615;27;45254;-62
2022/07/11 00:37:19;;;;;;;;;5.00;4.00;;;;;;;;5064717;27;47007;-61
2022/07/11 00:39:44;;;;;;;;;4.00;4.00;;;;;;;;5094357;27;45575;-61
2022/07/11 00:42:10;;;;;;;;;3.75;3.00;;;;;;;;5095607;27;45385;-62
2022/07/11 00:44:36;;;;;;;;;5.00;4.00;;;;;;;;5107163;27;45478;-62
2022/07/11 00:47:01;;;;;;;;;5.00;5.00;;;;;;;;5115806;27;46497;-62
2022/07/11 00:49:26;;;;;;;;;3.50;3.50;;;;;;;;5115578;27;45448;-62
2022/07/11 00:51:51;;;;;;;;;3.00;3.00;;;;;;;;5097416;27;45496;-61
2022/07/11 00:54:18;;;;;;;;;4.00;4.00;;;;;;;;5115635;27;45465;-60
2022/07/11 00:56:44;;;;;;;;;4.00;2.75;;;;;;;;5096924;27;47578;-61
2022/07/11 00:59:09;;;;;;;;;3.25;2.00;;;;;;;;5116981;27;45383;-62
2022/07/11 01:01:37;;;;;;;;;4.00;4.00;;;;;;;;5119260;27;45321;-62
2022/07/11 01:04:03;;;;;;;;;2.75;2.75;;;;;;;;5119542;27;45358;-62
2022/07/11 01:06:28;;;;;;;;;3.00;3.00;;;;;;;;5119049;27;46396;-62
2022/07/11 01:08:53;;;;;;;;;2.50;2.50;;;;;;;;5097868;27;45431;-61
2022/07/11 01:11:19;;;;;;;;;2.00;2.00;;;;;;;;5097235;27;45361;-62
2022/07/11 01:13:45;;;;;;;;;3.00;3.00;;;;;;;;5094190;27;45571;-63
2022/07/11 01:16:15;;;;;;;;;3.00;3.00;;;;;;;;5095205;27;46612;-62
2022/07/11 01:18:44;;;;;;;;;3.00;3.00;;;;;;;;5098023;27;45431;-62
2022/07/11 01:21:14;;;;;;;;;3.50;2.00;;;;;;;;5074089;27;45574;-62
2022/07/11 01:23:39;;;;;;;;;2.00;2.00;;;;;;;;5098129;27;45528;-62
2022/07/11 01:26:05;;;;;;;;;3.00;3.00;;;;;;;;5097381;27;46117;-62
2022/07/11 01:28:30;;;;;;;;;2.00;2.00;;;;;;;;5098112;27;45301;-61
2022/07/11 01:30:55;;;;;;;;;2.00;2.00;;;;;;;;5098418;27;45526;-61
2022/07/11 01:33:20;;;;;;;;;3.00;3.00;;;;;;;;5103564;27;45477;-61
2022/07/11 01:35:45;;;;;;;;;3.75;3.00;;;;;;;;5101494;27;46382;-62
2022/07/11 01:38:11;;;;;;;;;2.25;2.25;;;;;;;;5101318;27;45413;-60
2022/07/11 01:40:36;;;;;;;;;3.75;2.50;;;;;;;;5118588;27;45382;-61
2022/07/11 01:43:01;;;;;;;;;2.00;1.75;;;;;;;;5114976;27;45337;-61
2022/07/11 01:45:26;;;;;;;;;2.25;2.25;;;;;;;;5098010;27;46476;-61
2022/07/11 01:47:52;;;;;;;;;3.00;3.00;;;;;;;;5097864;27;45301;-60
2022/07/11 01:50:17;;;;;;;;;3.00;3.00;;;;;;;;5098126;27;45448;-61
2022/07/11 01:52:42;;;;;;;;;1.25;1.25;;;;;;;;5098066;27;45353;-61
2022/07/11 01:55:07;;;;;;;;;4.50;3.75;;;;;;;;5097940;27;46545;-60
2022/07/11 01:57:33;;;;;;;;;3.00;2.75;;;;;;;;5097700;27;45302;-62
2022/07/11 01:59:58;;;;;;;;;2.25;2.00;;;;;;;;5098036;27;45427;-61
2022/07/11 02:02:23;;;;;;;;;3.00;3.00;;;;;;;;5079530;27;45593;-61
2022/07/11 02:04:48;;;;;;;;;2.25;2.00;;;;;;;;5097716;27;46349;-61
2022/07/11 02:07:15;;;;;;;;;2.75;2.75;;;;;;;;5078865;27;46092;-61
2022/07/11 02:09:40;;;;;;;;;2.75;2.75;;;;;;;;5096611;27;45329;-61
2022/07/11 02:12:06;;;;;;;;;3.00;2.25;;;;;;;;5096775;27;45388;-62
2022/07/11 02:14:31;;;;;;;;;2.00;2.00;;;;;;;;5097151;27;45863;-62
2022/07/11 02:16:57;;;;;;;;;2.50;2.50;;;;;;;;5096912;27;46076;-61
2022/07/11 02:19:22;;;;;;;;;2.00;2.00;;;;;;;;5096911;27;45399;-62
2022/07/11 02:21:48;;;;;;;;;1.75;1.75;;;;;;;;5078495;27;45464;-60
2022/07/11 02:24:14;;;;;;;;;3.00;2.75;;;;;;;;5096897;27;45399;-61
2022/07/11 02:26:39;;;;;;;;;2.00;2.00;;;;;;;;5097163;27;45452;-61
2022/07/11 02:29:04;;;;;;;;;2.50;2.50;;;;;;;;5096974;27;45407;-61
2022/07/11 02:31:29;;;;;;;;;3.00;3.00;;;;;;;;5096855;27;45363;-61
2022/07/11 02:33:55;;;;;;;;;2.00;2.00;;;;;;;;5096710;27;45468;-62
2022/07/11 02:36:20;;;;;;;;;2.50;2.50;;;;;;;;5096532;27;45421;-61
2022/07/11 02:38:45;;;;;;;;;1.00;1.00;;;;;;;;5097004;27;45336;-61
2022/07/11 02:41:10;;;;;;;;;3.00;2.00;;;;;;;;5096896;27;45334;-62
2022/07/11 02:43:35;;;;;;;;;3.00;2.50;;;;;;;;5096604;27;46806;-61
2022/07/11 02:46:01;;;;;;;;;2.00;2.00;;;;;;;;5096881;27;45349;-62
2022/07/11 02:48:26;;;;;;;;;3.75;3.75;;;;;;;;5096502;27;45423;-61
2022/07/11 02:50:51;;;;;;;;;2.75;2.75;;;;;;;;5096526;27;45474;-62
2022/07/11 02:53:17;;;;;;;;;1.50;1.50;;;;;;;;5096468;27;45768;-62
2022/07/11 02:55:42;;;;;;;;;3.00;3.00;;;;;;;;5077909;27;45522;-62
2022/07/11 02:58:07;;;;;;;;;2.00;2.00;;;;;;;;5096378;27;46025;-61
2022/07/11 03:00:32;;;;;;;;;3.00;3.00;;;;;;;;5096162;27;45355;-62
2022/07/11 03:02:57;;;;;;;;;5.00;3.50;;;;;;;;5095839;27;45781;-62
2022/07/11 03:05:23;;;;;;;;;4.50;3.00;;;;;;;;5077846;27;45459;-62
2022/07/11 03:07:48;;;;;;;;;3.25;3.00;;;;;;;;5096193;27;45376;-62
2022/07/11 03:10:14;;;;;;;;;5.50;5.25;;;;;;;;5096291;27;45391;-61
2022/07/11 03:12:39;;;;;;;;;4.50;4.25;;;;;;;;5095728;27;45601;-62
2022/07/11 03:15:05;;;;;;;;;4.00;3.00;;;;;;;;5096029;27;45468;-61
2022/07/11 03:17:30;;;;;;;;;4.50;4.50;;;;;;;;5095810;27;45400;-62
2022/07/11 03:19:55;;;;;;;;;6.00;5.00;;;;;;;;5096264;27;45385;-61
2022/07/11 03:22:22;;;;;;;;;3.25;3.25;;;;;;;;5076338;27;48435;-61
2022/07/11 03:24:48;;;;;;;;;5.50;4.50;;;;;;;;5096201;27;45444;-61
2022/07/11 03:27:13;;;;;;;;;5.25;4.00;;;;;;;;5096077;27;45339;-61
2022/07/11 03:29:39;;;;;;;;;5.50;4.00;;;;;;;;5095699;27;45391;-62
2022/07/11 03:32:04;;;;;;;;;3.25;3.25;;;;;;;;5095782;27;45819;-62
2022/07/11 03:34:30;;;;;;;;;4.00;4.00;;;;;;;;5095680;27;45387;-61
2022/07/11 03:36:55;;;;;;;;;3.25;3.25;;;;;;;;5077460;27;45551;-62
2022/07/11 03:39:23;;;;;;;;;3.75;3.75;;;;;;;;5077289;27;45372;-61
2022/07/11 03:41:49;;;;;;;;;3.00;3.00;;;;;;;;5095448;27;46471;-62
2022/07/11 03:44:14;;;;;;;;;3.00;3.00;;;;;;;;5077073;27;45570;-62
2022/07/11 03:46:39;;;;;;;;;3.50;3.50;;;;;;;;5077393;27;45412;-61
2022/07/11 03:49:04;;;;;;;;;3.00;3.00;;;;;;;;5077574;27;45929;-62
2022/07/11 03:51:30;;;;;;;;;3.75;2.00;;;;;;;;5095409;27;45353;-62
2022/07/11 03:53:56;;;;;;;;;2.25;2.25;;;;;;;;5077113;27;45411;-61
2022/07/11 03:56:22;;;;;;;;;2.50;2.50;;;;;;;;5077101;27;45412;-61
2022/07/11 03:58:48;;;;;;;;;2.75;2.75;;;;;;;;5077295;27;45314;-63
2022/07/11 04:01:13;;;;;;;;;2.00;2.00;;;;;;;;5095257;27;46423;-62
2022/07/11 04:03:38;;;;;;;;;3.00;3.00;;;;;;;;5095144;27;45444;-61
2022/07/11 04:06:04;;;;;;;;;4.00;4.00;;;;;;;;5095534;27;45371;-61
2022/07/11 04:08:29;;;;;;;;;3.00;3.00;;;;;;;;5095365;27;45637;-61
2022/07/11 04:10:54;;;;;;;;;3.00;3.00;;;;;;;;5095320;27;46028;-63
2022/07/11 04:13:19;;;;;;;;;3.00;3.00;;;;;;;;5095438;27;45366;-61
2022/07/11 04:15:44;;;;;;;;;2.00;2.00;;;;;;;;5095302;27;45534;-61
2022/07/11 04:18:10;;;;;;;;;2.25;2.25;;;;;;;;5095262;27;45395;-62
2022/07/11 04:20:35;;;;;;;;;2.25;2.25;;;;;;;;5095150;27;46399;-61
2022/07/11 04:23:00;;;;;;;;;3.00;3.00;;;;;;;;5094928;27;45349;-61
2022/07/11 04:25:25;;;;;;;;;3.25;3.25;;;;;;;;5095142;27;45507;-62
2022/07/11 04:27:50;;;;;;;;;2.75;2.75;;;;;;;;5095255;27;45430;-62
2022/07/11 04:30:16;;;;;;;;;2.75;1.00;;;;;;;;5095056;27;46296;-62
2022/07/11 04:32:41;;;;;;;;;3.75;2.00;;;;;;;;5076164;27;46263;-61
2022/07/11 04:35:06;;;;;;;;;2.50;2.50;;;;;;;;5094985;27;45461;-62
2022/07/11 04:37:32;;;;;;;;;3.00;3.00;;;;;;;;5076408;27;45310;-62
2022/07/11 04:39:57;;;;;;;;;4.00;4.00;;;;;;;;5075097;27;46645;-62
2022/07/11 04:42:22;;;;;;;;;4.50;3.00;;;;;;;;5094845;27;45954;-62
2022/07/11 04:44:48;;;;;;;;;6.50;5.00;;;;;;;;5106910;27;45307;-61
2022/07/11 04:47:13;;;;;;;;;3.00;3.00;;;;;;;;5094082;27;45399;-63
2022/07/11 04:49:38;;;;;;;;;6.00;5.00;;;;;;;;5075175;27;47710;-63
2022/07/11 04:52:04;;;;;;;;;4.25;3.75;;;;;;;;5093884;27;45506;-62
2022/07/11 04:54:29;;;;;;;;;4.00;3.50;;;;;;;;5074140;27;45360;-62
2022/07/11 04:56:54;;;;;;;;;4.00;4.00;;;;;;;;5115528;27;45432;-62
2022/07/11 04:59:19;;;;;;;;;4.50;4.50;;;;;;;;5115161;27;45543;-61
2022/07/11 05:01:45;;;;;;;;;4.75;4.75;;;;;;;;5115120;27;45350;-61
2022/07/11 05:04:10;;;;;;;;;4.00;4.00;;;;;;;;5115352;27;45286;-60
2022/07/11 05:06:35;;;;;;;;;3.75;3.75;;;;;;;;5095641;27;45512;-60
2022/07/11 05:09:00;;;;;;;;;5.50;4.25;;;;;;;;5094068;27;45398;-61
2022/07/11 05:11:26;;;;;;;;;5.50;4.50;;;;;;;;5098304;27;45306;-61
2022/07/11 05:13:51;;;;;;;;;4.00;4.00;;;;;;;;5094483;27;45193;-62
2022/07/11 05:16:16;;;;;;;;;5.00;4.00;;;;;;;;5095026;27;45417;-62
2022/07/11 05:18:41;;;;;;;;;5.50;3.00;;;;;;;;5075701;27;46749;-62
2022/07/11 05:21:06;;;;;;;;;6.25;5.00;;;;;;;;5094185;27;45360;-63
2022/07/11 05:23:32;;;;;;;;;5.00;5.00;;;;;;;;5094258;27;45401;-63
2022/07/11 05:25:57;;;;;;;;;3.75;3.75;;;;;;;;5095777;27;45267;-62
2022/07/11 05:28:22;;;;;;;;;4.00;4.00;;;;;;;;5076992;27;47847;-63
2022/07/11 05:30:47;;;;;;;;;3.50;3.25;;;;;;;;5094370;27;45308;-63
2022/07/11 05:33:13;;;;;;;;;5.00;5.00;;;;;;;;5094312;27;45451;-63
2022/07/11 05:35:38;;;;;;;;;5.00;5.00;;;;;;;;5092949;27;45494;-63
2022/07/11 05:38:03;;;;;;;;;4.25;4.25;;;;;;;;5092351;27;46489;-63
2022/07/11 05:40:28;;;;;;;;;5.00;5.00;;;;;;;;5094471;27;45394;-62
2022/07/11 05:42:54;;;;;;;;;2.00;2.00;;;;;;;;5094283;27;45729;-63
2022/07/11 05:45:19;;;;;;;;;4.25;4.25;;;;;;;;5096025;27;45408;-62
2022/07/11 05:47:44;;;;;;;;;3.00;3.00;;;;;;;;5078931;27;47834;-62
2022/07/11 05:50:09;;;;;;;;;7.00;4.00;;;;;;;;5097844;27;45298;-63
2022/07/11 05:52:35;;;;;;;;;5.00;4.00;;;;;;;;5097814;27;45359;-63
2022/07/11 05:55:00;;;;;;;;;3.50;3.50;;;;;;;;5097530;27;45405;-63
2022/07/11 05:57:25;;;;;;;;;3.50;3.50;;;;;;;;5097594;27;46228;-62
2022/07/11 05:59:50;;;;;;;;;3.25;3.25;;;;;;;;5097423;27;45444;-62
2022/07/11 06:02:16;;;;;;;;;3.75;3.75;;;;;;;;5097621;27;45392;-63
2022/07/11 06:04:42;;;;;;;;;4.00;4.00;;;;;;;;5097581;27;45342;-62
2022/07/11 06:07:08;;;;;;;;;3.25;3.25;;;;;;;;5097246;27;46526;-61
2022/07/11 06:09:33;;;;;;;;;2.75;2.75;;;;;;;;5097159;27;45399;-62
2022/07/11 06:11:58;;;;;;;;;4.75;4.75;;;;;;;;5078948;27;45375;-62
2022/07/11 06:14:24;;;;;;;;;5.75;4.00;;;;;;;;5079067;27;45412;-61
2022/07/11 06:16:50;;;;;;;;;5.50;5.50;;;;;;;;5097044;27;47398;-61
2022/07/11 06:19:15;;;;;;;;;3.25;3.25;;;;;;;;5097011;27;45460;-61
2022/07/11 06:21:40;;;;;;;;;4.75;4.75;;;;;;;;5097246;27;45377;-62
2022/07/11 06:24:06;;;;;;;;;4.00;4.00;;;;;;;;5097243;27;46106;-62
2022/07/11 06:26:31;;;;;;;;;2.25;2.25;;;;;;;;5096970;27;45639;-62
2022/07/11 06:28:57;;;;;;;;;5.25;4.25;;;;;;;;5097074;27;45528;-62
2022/07/11 06:31:22;;;;;;;;;5.00;5.00;;;;;;;;5097105;27;45443;-62
2022/07/11 06:33:54;;;;;;;;;6.50;4.00;;;;;;;;5078458;27;45487;-63
2022/07/11 06:36:21;;;;;;;;;4.25;3.50;;;;;;;;5074754;28;48859;-63
2022/07/11 06:38:47;;;;;;;;;4.25;3.50;;;;;;;;5076280;28;45283;-63
2022/07/11 06:41:12;;;;;;;;;4.75;4.75;;;;;;;;5076385;28;45508;-63
2022/07/11 06:43:38;;;;;;;;;4.00;4.00;;;;;;;;5063532;28;45418;-62
2022/07/11 06:46:03;;;;;;;;;2.75;2.75;;;;;;;;5076086;28;46329;-63
2022/07/11 06:48:28;;;;;;;;;5.50;4.00;;;;;;;;5076064;28;45568;-63
2022/07/11 06:50:53;;;;;;;;;2.75;2.00;;;;;;;;5076270;28;45348;-63
2022/07/11 06:53:18;;;;;;;;;3.00;3.00;;;;;;;;5074708;28;45412;-62
2022/07/11 06:55:44;;;;;;;;;4.50;2.00;;;;;;;;5075528;28;46423;-63
2022/07/11 06:58:09;;;;;;;;;3.50;3.50;;;;;;;;5075731;28;45391;-62
2022/07/11 07:00:34;;;;;;;;;4.00;4.00;;;;;;;;5074658;28;45403;-63
2022/07/11 07:02:59;;;;;;;;;2.00;2.00;;;;;;;;5075834;28;45309;-63
2022/07/11 07:05:25;;;;;;;;;4.25;2.75;;;;;;;;5059413;27;46097;-62
2022/07/11 07:07:51;;;;;;;;;4.50;4.50;;;;;;;;5075745;28;45488;-61
2022/07/11 07:10:16;;;;;;;;;3.25;2.00;;;;;;;;5057611;28;45340;-63
2022/07/11 07:12:41;;;;;;;;;4.50;4.50;;;;;;;;5075905;28;45358;-62
2022/07/11 07:15:07;;;;;;;;;5.25;5.25;;;;;;;;5075658;28;46037;-62
2022/07/11 07:17:32;;;;;;;;;3.00;3.00;;;;;;;;5057182;28;46114;-62
2022/07/11 07:19:57;;;;;;;;;3.50;2.50;;;;;;;;5076503;28;45393;-63
2022/07/11 07:22:22;;;;;;;;;3.00;3.00;;;;;;;;5076257;28;45415;-61
2022/07/11 07:24:48;;;;;;;;;2.00;2.00;;;;;;;;5075789;28;45873;-62
2022/07/11 07:27:14;;;;;;;;;2.00;2.00;;;;;;;;5075853;28;46071;-62
2022/07/11 07:29:39;;;;;;;;;4.00;3.00;;;;;;;;5069498;28;46371;-63
2022/07/11 07:32:05;;;;;;;;;4.00;4.00;;;;;;;;5054591;28;45347;-65
2022/07/11 07:34:30;;;;;;;;;4.50;3.25;;;;;;;;5072787;28;46469;-63
2022/07/11 07:36:55;;;;;;;;;2.25;2.25;;;;;;;;5054852;28;45941;-63
2022/07/11 07:39:21;;;;;;;;;2.00;2.00;;;;;;;;5072446;28;45318;-63
2022/07/11 07:41:46;;;;;;;;;4.00;3.00;;;;;;;;5073163;28;45349;-65
2022/07/11 07:44:11;;;;;;;;;4.00;2.00;;;;;;;;5070755;28;46415;-64
2022/07/11 07:46:36;;;;;;;;;3.25;3.25;;;;;;;;5072336;28;45509;-64
2022/07/11 07:49:02;;;;;;;;;3.00;3.00;;;;;;;;5056772;28;45483;-64
2022/07/11 07:51:28;;;;;;;;;2.25;2.00;;;;;;;;5074631;28;45445;-64
2022/07/11 07:53:53;;;;;;;;;3.00;3.00;;;;;;;;5074810;28;45679;-64
2022/07/11 07:56:19;;;;;;;;;4.00;4.00;;;;;;;;5074780;28;45921;-64
2022/07/11 07:58:44;;;;;;;;;4.00;4.00;;;;;;;;5075203;28;45946;-64
2022/07/11 08:01:45;;;;;;;;;6.00;4.75;;;;;;;;5074847;28;45363;-64
2022/07/11 08:04:04;;;;;;;;;3.50;3.50;;;;;;;;5070571;28;46554;-64
2022/07/11 08:06:30;;;;;;;;;2.00;2.00;;;;;;;;5056408;28;45512;-65
2022/07/11 08:08:55;;;;;;;;;3.50;2.50;;;;;;;;5074510;28;45544;-65
2022/07/11 08:11:20;;;;;;;;;1.25;1.25;;;;;;;;5075026;28;45341;-65
2022/07/11 08:13:45;;;;;;;;;2.00;2.00;;;;;;;;5056479;28;45432;-64
2022/07/11 08:16:10;;;;;;;;;4.50;4.50;;;;;;;;5074377;28;45431;-63
2022/07/11 08:18:36;;;;;;;;;1.75;1.75;;;;;;;;5074795;28;45283;-64
2022/07/11 08:21:01;;;;;;;;;2.50;2.50;;;;;;;;5074686;28;45484;-65
2022/07/11 08:23:27;;;;;;;;;2.50;2.50;;;;;;;;5074485;28;45922;-65
2022/07/11 08:25:52;;;;;;;;;3.00;2.75;;;;;;;;5074603;28;45383;-65
2022/07/11 08:28:17;;;;;;;;;3.50;2.50;;;;;;;;5074407;28;45395;-65
2022/07/11 08:30:43;;;;;;;;;1.00;1.00;;;;;;;;5056218;28;45931;-65
2022/07/11 08:33:08;;;;;;;;;2.00;2.00;;;;;;;;5074919;28;46545;-65
2022/07/11 08:35:34;;;;;;;;;2.00;2.00;;;;;;;;5056530;28;45466;-66
2022/07/11 08:37:59;;;;;;;;;1.00;1.00;;;;;;;;5075081;28;45350;-65
2022/07/11 08:40:24;;;;;;;;;1.50;1.50;;;;;;;;5075237;28;45972;-64
2022/07/11 08:42:49;;;;;;;;;1.75;1.75;;;;;;;;5074588;28;47511;-65
2022/07/11 08:45:16;;;;;;;;;1.25;1.25;;;;;;;;5075078;28;45386;-65
2022/07/11 08:47:41;;;;;;;;;1.00;1.00;;;;;;;;5056831;28;45419;-65
2022/07/11 08:50:07;;;;;;;;;3.00;1.25;;;;;;;;5074801;28;45447;-66
2022/07/11 08:52:33;;;;;;;;;3.00;3.00;;;;;;;;5074868;28;46675;-65
2022/07/11 08:54:58;;;;;;;;;3.00;3.00;;;;;;;;5056492;28;45419;-65
2022/07/11 08:57:24;;;;;;;;;2.00;2.00;;;;;;;;5076433;28;45337;-65
2022/07/11 08:59:52;;;;;;;;;2.00;2.00;;;;;;;;5076417;28;45472;-65
2022/07/11 09:02:18;;;;;;;;;4.00;2.00;;;;;;;;5056406;28;47976;-65
2022/07/11 09:04:43;;;;;;;;;1.00;1.00;;;;;;;;5074673;28;45548;-65
2022/07/11 09:07:09;;;;;;;;;2.00;2.00;;;;;;;;5056350;28;45920;-66
2022/07/11 09:09:34;;;;;;;;;2.50;2.00;;;;;;;;5074761;28;45343;-65
2022/07/11 09:11:59;;;;;;;;;2.00;2.00;;;;;;;;5074582;28;45639;-66
2022/07/11 09:14:26;;;;;;;;;2.00;2.00;;;;;;;;5056301;28;45496;-65
2022/07/11 09:16:53;;;;;;;;;3.00;3.00;;;;;;;;5074618;28;45231;-65
2022/07/11 09:19:23;;;;;;;;;2.00;2.00;;;;;;;;5074734;28;45359;-64
2022/07/11 09:27:50;;;;;;;;;1.00;1.00;;;;;;;;5078138;28;45507;-65
2022/07/11 09:30:17;;;;;;;;;1.00;1.00;;;;;;;;5077904;28;45451;-66
2022/07/11 09:32:50;;;;;;;;;2.00;2.00;;;;;;;;5059555;28;47889;-65
2022/07/11 09:35:16;;;;;;;;;1.50;1.50;;;;;;;;5063036;27;45368;-66
2022/07/11 09:37:41;;;;;;;;;2.50;2.00;;;;;;;;5098339;27;45396;-66
2022/07/11 09:40:11;;;;;;;;;1.75;1.75;;;;;;;;5098469;27;45916;-65
2022/07/11 09:42:50;;;;;;;;;1.00;1.00;;;;;;;;5079231;27;47626;-65
2022/07/11 09:45:16;;;;;;;;;0.50;0.50;;;;;;;;5062992;27;45388;-66
2022/07/11 09:47:51;;;;;;;;;2.50;2.00;;;;;;;;5098257;27;45437;-65
2022/07/11 09:50:17;;;;;;;;;1.25;1.25;;;;;;;;5098149;27;45367;-66
2022/07/11 09:52:44;;;;;;;;;1.50;1.50;;;;;;;;5097916;27;45607;-64
2022/07/11 09:55:09;;;;;;;;;0.50;0.50;;;;;;;;5079840;27;45440;-66
2022/07/11 09:57:35;;;;;;;;;1.75;1.75;;;;;;;;5079570;27;45388;-66
2022/07/11 10:00:03;;;;;;;;;1.75;1.75;;;;;;;;5098141;27;45375;-66
2022/07/11 10:02:28;;;;;;;;;0.75;0.75;;;;;;;;5097556;27;46396;-64
2022/07/11 10:04:54;;;;;;;;;0.75;0.75;;;;;;;;5097957;27;45403;-65
2022/07/11 10:07:19;;;;;;;;;3.00;3.00;;;;;;;;5097929;27;45480;-64
2022/07/11 10:09:44;;;;;;;;;1.25;1.25;;;;;;;;5097950;27;45311;-65
2022/07/11 10:12:10;;;;;;;;;1.75;0.75;;;;;;;;5097664;27;46647;-64
2022/07/11 10:14:37;;;;;;;;;1.00;1.00;;;;;;;;5097607;27;45348;-63
2022/07/11 10:17:07;;;;;;;;;0.00;0.00;;;;;;;;5097820;27;45341;-65
2022/07/11 10:19:38;;;;;;;;;0.75;0.75;;;;;;;;5097751;27;45466;-65
2022/07/11 10:22:22;;;;;;;;;0.75;0.75;;;;;;;;5097406;27;45822;-63
2022/07/11 10:24:59;;;;;;;;;1.25;1.25;;;;;;;;5097393;27;45468;-64
2022/07/11 10:27:49;;;;;;;;;1.00;0.75;;;;;;;;5079234;27;45379;-65
2022/07/11 10:30:34;;;;;;;;;1.00;1.00;;;;;;;;5097065;27;45478;-64
2022/07/11 10:33:05;;;;;;;;;1.00;1.00;;;;;;;;5097056;27;46598;-64
2022/07/11 10:35:30;;;;;;;;;1.75;0.75;;;;;;;;5078563;27;45444;-65
2022/07/11 10:37:55;;;;;;;;;0.75;0.75;;;;;;;;5097384;27;45344;-65
2022/07/11 10:40:39;;;;;;;;;1.25;0.75;;;;;;;;5095342;27;45385;-67
2022/07/11 10:43:04;;;;;;;;;2.00;1.75;;;;;;;;5077543;27;47599;-65
2022/07/11 10:45:48;;;;;;;;;0.75;0.75;;;;;;;;5095390;27;45477;-64
2022/07/11 10:48:13;;;;;;;;;0.00;0.00;;;;;;;;5095724;27;45541;-66
2022/07/11 10:50:40;;;;;;;;;0.75;0.75;;;;;;;;5095416;27;45744;-64
2022/07/11 10:53:09;;;;;;;;;1.75;1.75;;;;;;;;5094580;27;45502;-64
2022/07/11 10:55:42;;;;;;;;;0.75;0.75;;;;;;;;5094706;27;45504;-65
2022/07/11 10:58:11;;;;;;;;;0.50;0.50;;;;;;;;5074930;28;45527;-66
2022/07/11 11:00:36;;;;;;;;;0.00;0.00;;;;;;;;5075055;28;45505;-65
2022/07/11 11:03:05;;;;;;;;;1.00;1.00;;;;;;;;5074735;28;45423;-63
2022/07/11 11:05:48;;;;;;;;;0.00;0.00;;;;;;;;5087252;27;45435;-64
2022/07/11 11:08:35;;;;;;;;;2.50;1.00;;;;;;;;5099109;27;45415;-64
2022/07/11 11:11:20;;;;;;;;;0.00;0.00;;;;;;;;5096606;27;45515;-63
2022/07/11 11:13:45;;;;;;;;;1.50;1.00;;;;;;;;5033053;28;45957;-63
2022/07/11 11:16:22;;;;;;;;;0.00;0.00;;;;;;;;5033415;28;45377;-64
2022/07/11 11:18:47;;;;;;;;;1.25;1.25;;;;;;;;5033418;28;45477;-65
2022/07/11 11:21:14;;;;;;;;;1.50;1.50;;;;;;;;5016326;28;45452;-65
2022/07/11 11:24:02;;;;;;;;;1.25;1.00;;;;;;;;5033379;28;47567;-64
2022/07/11 11:26:43;;;;;;;;;2.75;1.00;;;;;;;;5033207;28;45374;-64
2022/07/11 11:29:08;;;;;;;;;1.75;1.75;;;;;;;;5033185;28;45529;-65
2022/07/11 11:31:33;;;;;;;;;0.50;0.50;;;;;;;;5032983;28;45324;-64
2022/07/11 11:34:00;;;;;;;;;1.00;1.00;;;;;;;;5032375;28;46542;-64
2022/07/11 11:36:26;;;;;;;;;1.50;1.00;;;;;;;;5032134;28;45426;-65
2022/07/11 11:38:52;;;;;;;;;1.75;1.75;;;;;;;;5015853;28;45976;-64
2022/07/11 11:41:23;;;;;;;;;1.00;1.00;;;;;;;;5032692;28;45499;-65
2022/07/11 11:43:48;;;;;;;;;1.00;1.00;;;;;;;;5031222;28;46035;-63
2022/07/11 11:46:14;;;;;;;;;1.75;1.75;;;;;;;;5032521;28;45408;-64
2022/07/11 11:48:45;;;;;;;;;0.75;0.75;;;;;;;;5032673;28;45365;-65
2022/07/11 11:51:10;;;;;;;;;1.00;1.00;;;;;;;;5054301;27;46091;-63
2022/07/11 11:53:37;;;;;;;;;1.00;1.00;;;;;;;;5095226;27;46734;-64
2022/07/11 11:56:15;;;;;;;;;1.50;1.50;;;;;;;;5095618;27;45413;-63
2022/07/11 11:58:44;;;;;;;;;1.00;1.00;;;;;;;;5095664;27;45389;-64
2022/07/11 12:01:10;;;;;;;;;1.00;1.00;;;;;;;;5095392;27;45307;-63
2022/07/11 12:03:47;;;;;;;;;1.00;1.00;;;;;;;;5095505;27;45678;-63
2022/07/11 12:06:13;;;;;;;;;1.00;1.00;;;;;;;;5076906;27;46190;-64
2022/07/11 12:08:38;;;;;;;;;2.00;1.00;;;;;;;;5095653;27;45791;-64
2022/07/11 12:11:03;;;;;;;;;2.00;2.00;;;;;;;;5095582;27;45437;-64
2022/07/11 12:13:28;;;;;;;;;2.75;1.25;;;;;;;;5095456;27;46549;-64
2022/07/11 12:18:37;;;;;;;;;2.00;1.00;;;;;;;;5095506;27;45297;-65
2022/07/11 12:21:10;;;;;;;;;1.75;1.75;;;;;;;;5095126;27;45421;-65
2022/07/11 12:23:35;;;;;;;;;1.50;1.50;;;;;;;;5095012;27;46807;-64
2022/07/11 12:26:00;;;;;;;;;1.75;1.75;;;;;;;;5095299;27;45503;-64
2022/07/11 12:28:26;;;;;;;;;0.00;0.00;;;;;;;;5095531;27;45333;-66
2022/07/11 12:30:57;;;;;;;;;1.75;1.75;;;;;;;;5095448;27;45393;-67
2022/07/11 12:33:25;;;;;;;;;1.00;1.00;;;;;;;;5094888;27;45705;-67
2022/07/11 12:36:00;;;;;;;;;1.00;1.00;;;;;;;;5095095;27;45381;-65
2022/07/11 12:38:26;;;;;;;;;1.00;1.00;;;;;;;;5094947;27;45380;-67
2022/07/11 12:41:04;;;;;;;;;1.00;1.00;;;;;;;;5076416;27;45520;-67
2022/07/11 12:46:28;;;;;;;;;1.00;1.00;;;;;;;;5094975;27;45393;-66
2022/07/11 12:48:55;;;;;;;;;0.75;0.75;;;;;;;;5094894;27;45447;-65
2022/07/11 12:51:25;;;;;;;;;2.00;2.00;;;;;;;;5094758;27;45376;-64
2022/07/11 12:53:57;;;;;;;;;1.00;1.00;;;;;;;;5093745;27;45805;-64
2022/07/11 12:56:22;;;;;;;;;1.75;1.75;;;;;;;;5097918;27;46846;-66
2022/07/11 12:58:47;;;;;;;;;2.25;1.00;;;;;;;;5113881;27;45482;-65
2022/07/11 13:01:13;;;;;;;;;1.00;1.00;;;;;;;;5106054;27;45490;-65
2022/07/11 13:03:38;;;;;;;;;2.00;2.00;;;;;;;;5103985;27;45948;-66
2022/07/11 13:06:03;;;;;;;;;1.25;1.25;;;;;;;;5112595;27;45595;-67
2022/07/11 13:08:42;;;;;;;;;1.00;1.00;;;;;;;;5099885;27;45541;-67
2022/07/11 13:11:08;;;;;;;;;1.00;1.00;;;;;;;;5111267;27;45481;-66
2022/07/11 13:13:33;;;;;;;;;1.00;1.00;;;;;;;;5089717;27;47730;-68
2022/07/11 13:15:59;;;;;;;;;3.00;2.00;;;;;;;;5103793;27;45423;-67
2022/07/11 13:18:24;;;;;;;;;1.00;1.00;;;;;;;;5114501;27;45477;-66
2022/07/11 13:20:49;;;;;;;;;1.00;1.00;;;;;;;;5102184;27;45491;-66
2022/07/11 13:23:14;;;;;;;;;1.50;1.50;;;;;;;;5109606;27;45427;-66
2022/07/11 13:25:42;;;;;;;;;1.50;1.50;;;;;;;;5109474;27;45382;-66
2022/07/11 13:28:07;;;;;;;;;1.50;1.50;;;;;;;;5102476;27;45385;-66
2022/07/11 13:30:33;;;;;;;;;2.00;2.00;;;;;;;;5095664;27;45427;-67
2022/07/11 13:32:59;;;;;;;;;2.00;2.00;;;;;;;;5103020;27;45490;-66
2022/07/11 13:35:24;;;;;;;;;2.00;2.00;;;;;;;;5108435;27;45474;-67
2022/07/11 13:37:52;;;;;;;;;1.50;1.00;;;;;;;;5097951;27;45441;-68
2022/07/11 13:40:18;;;;;;;;;1.25;1.25;;;;;;;;5097880;27;45438;-67
2022/07/11 13:42:48;;;;;;;;;1.00;1.00;;;;;;;;5096351;27;46875;-67
2022/07/11 13:45:14;;;;;;;;;2.75;2.00;;;;;;;;5078105;27;45478;-66
2022/07/11 13:47:40;;;;;;;;;2.00;2.00;;;;;;;;5097546;27;45400;-65
2022/07/11 13:50:06;;;;;;;;;3.00;2.00;;;;;;;;5098207;27;45422;-63
2022/07/11 13:52:31;;;;;;;;;1.00;1.00;;;;;;;;5097705;27;46664;-65
2022/07/11 13:54:57;;;;;;;;;2.00;2.00;;;;;;;;5096510;27;45501;-66
2022/07/11 13:57:22;;;;;;;;;1.00;1.00;;;;;;;;5098136;27;45328;-65
2022/07/11 13:59:48;;;;;;;;;2.00;2.00;;;;;;;;5097835;27;45420;-65
2022/07/11 14:02:13;;;;;;;;;2.00;2.00;;;;;;;;5097637;27;45713;-66
2022/07/11 14:04:38;;;;;;;;;1.75;1.75;;;;;;;;5097569;27;45513;-65
2022/07/11 14:07:04;;;;;;;;;1.50;1.50;;;;;;;;5097142;27;45489;-65
2022/07/11 14:09:29;;;;;;;;;1.00;1.00;;;;;;;;5096382;27;45272;-63
2022/07/11 14:11:54;;;;;;;;;2.25;2.25;;;;;;;;5097603;27;45623;-64
2022/07/11 14:14:20;;;;;;;;;2.00;2.00;;;;;;;;5078169;27;45459;-64
2022/07/11 14:16:45;;;;;;;;;4.00;3.50;;;;;;;;5096970;27;45436;-64
2022/07/11 14:19:11;;;;;;;;;3.50;2.00;;;;;;;;5095673;27;45556;-65
2022/07/11 14:21:36;;;;;;;;;1.75;1.50;;;;;;;;5096566;27;45642;-63
2022/07/11 14:24:01;;;;;;;;;1.25;1.25;;;;;;;;5078418;27;45383;-64
2022/07/11 14:26:27;;;;;;;;;3.25;3.25;;;;;;;;5096794;27;45401;-64
2022/07/11 14:28:52;;;;;;;;;1.00;1.00;;;;;;;;5096871;27;45432;-64
2022/07/11 14:31:18;;;;;;;;;2.00;1.00;;;;;;;;5095559;27;46258;-65
2022/07/11 14:33:43;;;;;;;;;3.00;3.00;;;;;;;;5096396;27;45353;-65
2022/07/11 14:36:09;;;;;;;;;2.00;2.00;;;;;;;;5096501;27;45368;-66
2022/07/11 14:38:34;;;;;;;;;1.50;1.50;;;;;;;;5096826;27;45384;-64
2022/07/11 14:41:00;;;;;;;;;2.00;2.00;;;;;;;;5095957;27;45686;-65
2022/07/11 14:43:26;;;;;;;;;1.25;1.25;;;;;;;;5096211;27;45435;-65
2022/07/11 14:45:52;;;;;;;;;1.00;1.00;;;;;;;;5078146;27;45555;-64
2022/07/11 14:48:17;;;;;;;;;1.25;1.25;;;;;;;;5096274;27;45354;-65
2022/07/11 14:50:42;;;;;;;;;1.50;1.50;;;;;;;;5095957;27;46516;-66